sensor_id;sensor_type;location;lat;lon;timestamp;P1;durP1;ratioP1;P2;durP2;ratioP2
68938;SDS011;59064;45.294;11.816;2023-01-29T00:06:05;27.20;;;13.20;;
68938;SDS011;59064;45.294;11.816;2023-01-29T00:08:36;25.00;;;13.00;;
68938;SDS011;59064;45.294;11.816;2023-01-29T00:11:06;25.70;;;14.10;;
68938;SDS011;59064;45.294;11.816;2023-01-29T00:13:33;31.00;;;16.50;;
68938;SDS011;59064;45.294;11.816;2023-01-29T00:15:59;29.50;;;16.10;;
68938;SDS011;59064;45.294;11.816;2023-01-29T00:18:26;27.10;;;15.00;;
68938;SDS011;59064;45.294;11.816;2023-01-29T00:20:53;27.30;;;14.70;;
68938;SDS011;59064;45.294;11.816;2023-01-29T00:23:19;31.50;;;15.70;;
68938;SDS011;59064;45.294;11.816;2023-01-29T00:25:45;28.50;;;13.90;;
68938;SDS011;59064;45.294;11.816;2023-01-29T00:28:11;35.40;;;16.90;;
68938;SDS011;59064;45.294;11.816;2023-01-29T00:30:37;28.80;;;15.30;;
68938;SDS011;59064;45.294;11.816;2023-01-29T00:33:03;31.00;;;16.30;;
68938;SDS011;59064;45.294;11.816;2023-01-29T00:35:30;27.00;;;14.30;;
68938;SDS011;59064;45.294;11.816;2023-01-29T00:37:56;28.90;;;13.40;;
68938;SDS011;59064;45.294;11.816;2023-01-29T00:40:23;30.40;;;15.00;;
68938;SDS011;59064;45.294;11.816;2023-01-29T00:42:50;30.50;;;15.70;;
68938;SDS011;59064;45.294;11.816;2023-01-29T00:45:35;33.90;;;17.50;;
68938;SDS011;59064;45.294;11.816;2023-01-29T00:48:04;33.10;;;16.00;;
68938;SDS011;59064;45.294;11.816;2023-01-29T00:50:30;28.80;;;16.10;;
68938;SDS011;59064;45.294;11.816;2023-01-29T00:52:56;28.40;;;14.60;;
68938;SDS011;59064;45.294;11.816;2023-01-29T00:55:22;27.70;;;15.00;;
68938;SDS011;59064;45.294;11.816;2023-01-29T00:57:49;27.80;;;15.10;;
68938;SDS011;59064;45.294;11.816;2023-01-29T01:00:16;32.30;;;17.00;;
68938;SDS011;59064;45.294;11.816;2023-01-29T01:02:43;29.40;;;15.70;;
68938;SDS011;59064;45.294;11.816;2023-01-29T01:05:27;32.30;;;16.20;;
68938;SDS011;59064;45.294;11.816;2023-01-29T01:07:56;27.70;;;13.80;;
68938;SDS011;59064;45.294;11.816;2023-01-29T01:10:31;31.40;;;16.10;;
68938;SDS011;59064;45.294;11.816;2023-01-29T01:13:05;33.70;;;17.20;;
68938;SDS011;59064;45.294;11.816;2023-01-29T01:15:34;30.60;;;17.50;;
68938;SDS011;59064;45.294;11.816;2023-01-29T01:18:02;22.20;;;12.20;;
68938;SDS011;59064;45.294;11.816;2023-01-29T01:20:30;26.60;;;13.80;;
68938;SDS011;59064;45.294;11.816;2023-01-29T01:22:58;31.00;;;17.20;;
68938;SDS011;59064;45.294;11.816;2023-01-29T01:25:25;31.00;;;14.80;;
68938;SDS011;59064;45.294;11.816;2023-01-29T01:27:57;35.80;;;17.80;;
68938;SDS011;59064;45.294;11.816;2023-01-29T01:30:24;35.00;;;18.70;;
68938;SDS011;59064;45.294;11.816;2023-01-29T01:32:50;26.00;;;14.10;;
68938;SDS011;59064;45.294;11.816;2023-01-29T01:35:17;32.50;;;17.60;;
68938;SDS011;59064;45.294;11.816;2023-01-29T01:37:42;35.30;;;17.30;;
68938;SDS011;59064;45.294;11.816;2023-01-29T01:40:22;31.40;;;16.00;;
68938;SDS011;59064;45.294;11.816;2023-01-29T01:42:50;29.30;;;14.40;;
68938;SDS011;59064;45.294;11.816;2023-01-29T01:48:05;24.90;;;14.20;;
68938;SDS011;59064;45.294;11.816;2023-01-29T01:50:38;22.00;;;12.10;;
68938;SDS011;59064;45.294;11.816;2023-01-29T01:53:14;31.50;;;14.80;;
68938;SDS011;59064;45.294;11.816;2023-01-29T01:55:47;32.00;;;15.50;;
68938;SDS011;59064;45.294;11.816;2023-01-29T01:58:29;31.00;;;15.20;;
68938;SDS011;59064;45.294;11.816;2023-01-29T02:00:59;20.40;;;9.80;;
68938;SDS011;59064;45.294;11.816;2023-01-29T02:03:26;28.00;;;14.10;;
68938;SDS011;59064;45.294;11.816;2023-01-29T02:06:11;26.30;;;13.50;;
68938;SDS011;59064;45.294;11.816;2023-01-29T02:08:59;31.30;;;14.70;;
68938;SDS011;59064;45.294;11.816;2023-01-29T02:11:47;19.10;;;9.90;;
68938;SDS011;59064;45.294;11.816;2023-01-29T02:14:15;18.10;;;10.20;;
68938;SDS011;59064;45.294;11.816;2023-01-29T02:16:40;25.10;;;13.40;;
68938;SDS011;59064;45.294;11.816;2023-01-29T02:19:15;24.40;;;13.80;;
68938;SDS011;59064;45.294;11.816;2023-01-29T02:30:35;29.70;;;15.70;;
68938;SDS011;59064;45.294;11.816;2023-01-29T02:42:06;20.50;;;10.60;;
68938;SDS011;59064;45.294;11.816;2023-01-29T02:44:57;29.50;;;15.70;;
68938;SDS011;59064;45.294;11.816;2023-01-29T02:47:47;24.40;;;12.80;;
68938;SDS011;59064;45.294;11.816;2023-01-29T02:50:33;15.80;;;8.20;;
68938;SDS011;59064;45.294;11.816;2023-01-29T02:53:14;13.60;;;7.50;;
68938;SDS011;59064;45.294;11.816;2023-01-29T02:58:59;27.90;;;12.40;;
68938;SDS011;59064;45.294;11.816;2023-01-29T03:01:35;26.40;;;11.90;;
68938;SDS011;59064;45.294;11.816;2023-01-29T03:04:09;29.40;;;14.90;;
68938;SDS011;59064;45.294;11.816;2023-01-29T03:06:40;26.90;;;14.00;;
68938;SDS011;59064;45.294;11.816;2023-01-29T03:09:39;25.40;;;12.20;;
68938;SDS011;59064;45.294;11.816;2023-01-29T03:12:16;24.70;;;13.60;;
68938;SDS011;59064;45.294;11.816;2023-01-29T03:14:58;24.40;;;12.80;;
68938;SDS011;59064;45.294;11.816;2023-01-29T03:20:26;22.50;;;11.50;;
68938;SDS011;59064;45.294;11.816;2023-01-29T03:23:04;25.60;;;11.00;;
68938;SDS011;59064;45.294;11.816;2023-01-29T03:25:35;27.70;;;14.30;;
68938;SDS011;59064;45.294;11.816;2023-01-29T03:28:23;19.70;;;9.50;;
68938;SDS011;59064;45.294;11.816;2023-01-29T03:31:09;26.20;;;13.30;;
68938;SDS011;59064;45.294;11.816;2023-01-29T03:34:11;30.00;;;15.10;;
68938;SDS011;59064;45.294;11.816;2023-01-29T03:36:59;19.30;;;10.10;;
68938;SDS011;59064;45.294;11.816;2023-01-29T03:39:27;24.60;;;11.90;;
68938;SDS011;59064;45.294;11.816;2023-01-29T03:42:01;26.60;;;13.00;;
68938;SDS011;59064;45.294;11.816;2023-01-29T03:50:35;18.10;;;9.70;;
68938;SDS011;59064;45.294;11.816;2023-01-29T03:53:29;21.10;;;10.20;;
68938;SDS011;59064;45.294;11.816;2023-01-29T04:01:53;22.10;;;11.30;;
68938;SDS011;59064;45.294;11.816;2023-01-29T04:04:38;22.50;;;10.60;;
68938;SDS011;59064;45.294;11.816;2023-01-29T04:07:10;17.20;;;8.10;;
68938;SDS011;59064;45.294;11.816;2023-01-29T04:09:58;24.60;;;11.50;;
68938;SDS011;59064;45.294;11.816;2023-01-29T04:12:34;19.30;;;10.60;;
68938;SDS011;59064;45.294;11.816;2023-01-29T04:15:03;21.80;;;11.10;;
68938;SDS011;59064;45.294;11.816;2023-01-29T04:17:36;22.70;;;12.20;;
68938;SDS011;59064;45.294;11.816;2023-01-29T04:20:04;24.80;;;12.90;;
68938;SDS011;59064;45.294;11.816;2023-01-29T04:22:34;26.20;;;12.40;;
68938;SDS011;59064;45.294;11.816;2023-01-29T04:25:04;26.90;;;12.80;;
68938;SDS011;59064;45.294;11.816;2023-01-29T04:33:44;25.30;;;11.50;;
68938;SDS011;59064;45.294;11.816;2023-01-29T04:40:11;21.30;;;10.70;;
68938;SDS011;59064;45.294;11.816;2023-01-29T04:43:05;22.70;;;10.00;;
68938;SDS011;59064;45.294;11.816;2023-01-29T04:48:06;19.80;;;11.00;;
68938;SDS011;59064;45.294;11.816;2023-01-29T04:53:43;17.60;;;9.60;;
68938;SDS011;59064;45.294;11.816;2023-01-29T04:59:26;24.20;;;12.00;;
68938;SDS011;59064;45.294;11.816;2023-01-29T05:01:58;23.90;;;11.50;;
68938;SDS011;59064;45.294;11.816;2023-01-29T05:04:26;24.20;;;12.00;;
68938;SDS011;59064;45.294;11.816;2023-01-29T05:06:57;24.50;;;11.60;;
68938;SDS011;59064;45.294;11.816;2023-01-29T05:09:27;22.80;;;11.30;;
68938;SDS011;59064;45.294;11.816;2023-01-29T05:11:54;23.10;;;11.60;;
68938;SDS011;59064;45.294;11.816;2023-01-29T05:14:20;20.50;;;9.80;;
68938;SDS011;59064;45.294;11.816;2023-01-29T05:16:51;22.60;;;12.00;;
68938;SDS011;59064;45.294;11.816;2023-01-29T05:19:20;22.80;;;11.20;;
68938;SDS011;59064;45.294;11.816;2023-01-29T05:21:47;21.40;;;10.20;;
68938;SDS011;59064;45.294;11.816;2023-01-29T05:24:17;24.50;;;11.40;;
68938;SDS011;59064;45.294;11.816;2023-01-29T05:26:47;20.60;;;10.50;;
68938;SDS011;59064;45.294;11.816;2023-01-29T05:29:34;21.90;;;9.60;;
68938;SDS011;59064;45.294;11.816;2023-01-29T05:31:59;20.60;;;10.20;;
68938;SDS011;59064;45.294;11.816;2023-01-29T05:34:25;20.60;;;10.90;;
68938;SDS011;59064;45.294;11.816;2023-01-29T05:36:51;28.40;;;14.40;;
68938;SDS011;59064;45.294;11.816;2023-01-29T05:39:17;26.60;;;12.80;;
68938;SDS011;59064;45.294;11.816;2023-01-29T05:41:43;26.30;;;13.80;;
68938;SDS011;59064;45.294;11.816;2023-01-29T05:44:09;27.10;;;12.70;;
68938;SDS011;59064;45.294;11.816;2023-01-29T05:46:35;25.70;;;13.00;;
68938;SDS011;59064;45.294;11.816;2023-01-29T05:49:01;21.80;;;11.60;;
68938;SDS011;59064;45.294;11.816;2023-01-29T05:51:27;22.90;;;12.00;;
68938;SDS011;59064;45.294;11.816;2023-01-29T05:53:53;19.90;;;9.30;;
68938;SDS011;59064;45.294;11.816;2023-01-29T05:56:19;23.50;;;11.90;;
68938;SDS011;59064;45.294;11.816;2023-01-29T05:58:44;24.30;;;12.80;;
68938;SDS011;59064;45.294;11.816;2023-01-29T06:01:13;23.80;;;11.60;;
68938;SDS011;59064;45.294;11.816;2023-01-29T06:03:40;23.70;;;12.20;;
68938;SDS011;59064;45.294;11.816;2023-01-29T06:06:06;24.50;;;12.20;;
68938;SDS011;59064;45.294;11.816;2023-01-29T06:08:32;26.40;;;12.50;;
68938;SDS011;59064;45.294;11.816;2023-01-29T06:10:58;17.70;;;9.10;;
68938;SDS011;59064;45.294;11.816;2023-01-29T06:13:24;23.10;;;11.00;;
68938;SDS011;59064;45.294;11.816;2023-01-29T06:15:49;21.30;;;10.40;;
68938;SDS011;59064;45.294;11.816;2023-01-29T06:18:15;19.90;;;9.80;;
68938;SDS011;59064;45.294;11.816;2023-01-29T06:20:41;17.20;;;7.80;;
68938;SDS011;59064;45.294;11.816;2023-01-29T06:23:06;16.00;;;8.00;;
68938;SDS011;59064;45.294;11.816;2023-01-29T06:25:32;25.60;;;12.60;;
68938;SDS011;59064;45.294;11.816;2023-01-29T06:27:58;21.80;;;10.20;;
68938;SDS011;59064;45.294;11.816;2023-01-29T06:30:23;25.20;;;12.00;;
68938;SDS011;59064;45.294;11.816;2023-01-29T06:32:49;22.20;;;11.80;;
68938;SDS011;59064;45.294;11.816;2023-01-29T06:35:15;24.70;;;12.10;;
68938;SDS011;59064;45.294;11.816;2023-01-29T06:37:41;22.10;;;11.30;;
68938;SDS011;59064;45.294;11.816;2023-01-29T06:40:07;22.50;;;12.20;;
68938;SDS011;59064;45.294;11.816;2023-01-29T06:42:36;23.10;;;11.60;;
68938;SDS011;59064;45.294;11.816;2023-01-29T06:45:02;23.40;;;12.10;;
68938;SDS011;59064;45.294;11.816;2023-01-29T06:47:28;19.40;;;9.40;;
68938;SDS011;59064;45.294;11.816;2023-01-29T06:49:54;25.60;;;12.80;;
68938;SDS011;59064;45.294;11.816;2023-01-29T06:52:19;22.30;;;10.30;;
68938;SDS011;59064;45.294;11.816;2023-01-29T06:54:45;23.40;;;10.70;;
68938;SDS011;59064;45.294;11.816;2023-01-29T06:57:11;24.60;;;11.90;;
68938;SDS011;59064;45.294;11.816;2023-01-29T06:59:37;22.90;;;12.10;;
68938;SDS011;59064;45.294;11.816;2023-01-29T07:02:03;21.10;;;10.20;;
68938;SDS011;59064;45.294;11.816;2023-01-29T07:04:29;26.20;;;12.50;;
68938;SDS011;59064;45.294;11.816;2023-01-29T07:06:55;18.00;;;9.40;;
68938;SDS011;59064;45.294;11.816;2023-01-29T07:09:20;23.30;;;11.70;;
68938;SDS011;59064;45.294;11.816;2023-01-29T07:11:46;22.60;;;11.50;;
68938;SDS011;59064;45.294;11.816;2023-01-29T07:14:12;21.70;;;10.80;;
68938;SDS011;59064;45.294;11.816;2023-01-29T07:16:37;20.30;;;9.90;;
68938;SDS011;59064;45.294;11.816;2023-01-29T07:19:03;24.20;;;11.50;;
68938;SDS011;59064;45.294;11.816;2023-01-29T07:21:29;20.90;;;10.00;;
68938;SDS011;59064;45.294;11.816;2023-01-29T07:23:54;22.50;;;11.60;;
68938;SDS011;59064;45.294;11.816;2023-01-29T07:26:20;24.20;;;11.70;;
68938;SDS011;59064;45.294;11.816;2023-01-29T07:28:46;24.20;;;12.00;;
68938;SDS011;59064;45.294;11.816;2023-01-29T07:31:12;23.70;;;12.70;;
68938;SDS011;59064;45.294;11.816;2023-01-29T07:33:41;20.70;;;10.40;;
68938;SDS011;59064;45.294;11.816;2023-01-29T07:36:09;25.00;;;12.20;;
68938;SDS011;59064;45.294;11.816;2023-01-29T07:38:35;24.90;;;12.50;;
68938;SDS011;59064;45.294;11.816;2023-01-29T07:41:01;22.60;;;10.90;;
68938;SDS011;59064;45.294;11.816;2023-01-29T07:43:27;27.60;;;14.30;;
68938;SDS011;59064;45.294;11.816;2023-01-29T07:45:52;27.80;;;13.60;;
68938;SDS011;59064;45.294;11.816;2023-01-29T07:48:18;26.40;;;12.90;;
68938;SDS011;59064;45.294;11.816;2023-01-29T07:50:44;21.70;;;10.40;;
68938;SDS011;59064;45.294;11.816;2023-01-29T07:53:14;31.60;;;14.40;;
68938;SDS011;59064;45.294;11.816;2023-01-29T07:55:43;28.20;;;14.00;;
68938;SDS011;59064;45.294;11.816;2023-01-29T07:58:09;28.20;;;13.70;;
68938;SDS011;59064;45.294;11.816;2023-01-29T08:00:35;24.00;;;11.30;;
68938;SDS011;59064;45.294;11.816;2023-01-29T08:03:06;25.20;;;13.70;;
68938;SDS011;59064;45.294;11.816;2023-01-29T08:05:35;23.00;;;12.10;;
68938;SDS011;59064;45.294;11.816;2023-01-29T08:08:01;24.80;;;12.40;;
68938;SDS011;59064;45.294;11.816;2023-01-29T08:10:27;22.70;;;11.10;;
68938;SDS011;59064;45.294;11.816;2023-01-29T08:12:58;24.20;;;11.50;;
68938;SDS011;59064;45.294;11.816;2023-01-29T08:15:26;24.40;;;11.90;;
68938;SDS011;59064;45.294;11.816;2023-01-29T08:17:52;26.90;;;14.00;;
68938;SDS011;59064;45.294;11.816;2023-01-29T08:20:19;22.10;;;10.70;;
68938;SDS011;59064;45.294;11.816;2023-01-29T08:22:46;23.20;;;11.30;;
68938;SDS011;59064;45.294;11.816;2023-01-29T08:25:12;23.80;;;12.80;;
68938;SDS011;59064;45.294;11.816;2023-01-29T08:27:39;25.40;;;12.50;;
68938;SDS011;59064;45.294;11.816;2023-01-29T08:30:06;24.30;;;12.30;;
68938;SDS011;59064;45.294;11.816;2023-01-29T08:32:33;28.70;;;13.50;;
68938;SDS011;59064;45.294;11.816;2023-01-29T08:34:59;25.90;;;13.50;;
68938;SDS011;59064;45.294;11.816;2023-01-29T08:37:24;25.50;;;11.50;;
68938;SDS011;59064;45.294;11.816;2023-01-29T08:39:50;26.10;;;12.70;;
68938;SDS011;59064;45.294;11.816;2023-01-29T08:42:15;24.00;;;12.40;;
68938;SDS011;59064;45.294;11.816;2023-01-29T08:44:41;24.50;;;12.90;;
68938;SDS011;59064;45.294;11.816;2023-01-29T08:47:07;23.60;;;12.30;;
68938;SDS011;59064;45.294;11.816;2023-01-29T08:49:32;28.60;;;14.00;;
68938;SDS011;59064;45.294;11.816;2023-01-29T08:51:58;23.80;;;12.20;;
68938;SDS011;59064;45.294;11.816;2023-01-29T08:54:24;27.50;;;12.60;;
68938;SDS011;59064;45.294;11.816;2023-01-29T08:56:50;28.00;;;13.70;;
68938;SDS011;59064;45.294;11.816;2023-01-29T08:59:16;25.10;;;13.40;;
68938;SDS011;59064;45.294;11.816;2023-01-29T09:01:41;25.50;;;12.40;;
68938;SDS011;59064;45.294;11.816;2023-01-29T09:04:07;23.50;;;12.60;;
68938;SDS011;59064;45.294;11.816;2023-01-29T09:06:33;24.10;;;12.70;;
68938;SDS011;59064;45.294;11.816;2023-01-29T09:08:59;29.10;;;14.00;;
68938;SDS011;59064;45.294;11.816;2023-01-29T09:11:25;24.50;;;13.20;;
68938;SDS011;59064;45.294;11.816;2023-01-29T09:13:51;20.90;;;11.20;;
68938;SDS011;59064;45.294;11.816;2023-01-29T09:16:16;25.20;;;13.50;;
68938;SDS011;59064;45.294;11.816;2023-01-29T09:18:42;25.20;;;13.50;;
68938;SDS011;59064;45.294;11.816;2023-01-29T09:21:08;23.10;;;11.40;;
68938;SDS011;59064;45.294;11.816;2023-01-29T09:23:34;22.70;;;13.00;;
68938;SDS011;59064;45.294;11.816;2023-01-29T09:26:00;24.30;;;12.70;;
68938;SDS011;59064;45.294;11.816;2023-01-29T09:28:25;22.40;;;12.70;;
68938;SDS011;59064;45.294;11.816;2023-01-29T09:30:51;24.10;;;13.30;;
68938;SDS011;59064;45.294;11.816;2023-01-29T09:33:17;22.20;;;12.60;;
68938;SDS011;59064;45.294;11.816;2023-01-29T09:35:43;22.20;;;12.60;;
68938;SDS011;59064;45.294;11.816;2023-01-29T09:38:12;28.50;;;12.70;;
68938;SDS011;59064;45.294;11.816;2023-01-29T09:43:56;20.00;;;11.90;;
68938;SDS011;59064;45.294;11.816;2023-01-29T09:46:39;24.50;;;12.70;;
68938;SDS011;59064;45.294;11.816;2023-01-29T09:49:25;22.90;;;11.80;;
68938;SDS011;59064;45.294;11.816;2023-01-29T09:52:02;21.80;;;12.00;;
68938;SDS011;59064;45.294;11.816;2023-01-29T10:20:54;24.10;;;13.50;;
68938;SDS011;59064;45.294;11.816;2023-01-29T10:25:55;22.30;;;13.80;;
68938;SDS011;59064;45.294;11.816;2023-01-29T10:28:28;22.90;;;12.60;;
68938;SDS011;59064;45.294;11.816;2023-01-29T10:31:05;23.30;;;13.80;;
68938;SDS011;59064;45.294;11.816;2023-01-29T10:33:55;26.40;;;14.60;;
68938;SDS011;59064;45.294;11.816;2023-01-29T10:36:37;25.20;;;13.70;;
68938;SDS011;59064;45.294;11.816;2023-01-29T10:39:17;23.40;;;12.10;;
68938;SDS011;59064;45.294;11.816;2023-01-29T10:42:13;23.20;;;13.60;;
68938;SDS011;59064;45.294;11.816;2023-01-29T11:00:41;17.90;;;8.30;;
68938;SDS011;59064;45.294;11.816;2023-01-29T11:03:16;21.20;;;11.90;;
68938;SDS011;59064;45.294;11.816;2023-01-29T11:08:22;22.40;;;13.00;;
68938;SDS011;59064;45.294;11.816;2023-01-29T11:11:10;22.50;;;12.90;;
68938;SDS011;59064;45.294;11.816;2023-01-29T11:14:03;18.70;;;11.10;;
68938;SDS011;59064;45.294;11.816;2023-01-29T11:16:41;21.00;;;12.20;;
68938;SDS011;59064;45.294;11.816;2023-01-29T11:19:10;21.50;;;12.20;;
68938;SDS011;59064;45.294;11.816;2023-01-29T11:21:56;28.00;;;14.70;;
68938;SDS011;59064;45.294;11.816;2023-01-29T11:24:24;21.40;;;11.80;;
68938;SDS011;59064;45.294;11.816;2023-01-29T11:26:51;26.50;;;15.60;;
68938;SDS011;59064;45.294;11.816;2023-01-29T11:31:54;21.50;;;11.10;;
68938;SDS011;59064;45.294;11.816;2023-01-29T11:34:23;22.10;;;12.50;;
68938;SDS011;59064;45.294;11.816;2023-01-29T11:37:03;17.30;;;10.10;;
68938;SDS011;59064;45.294;11.816;2023-01-29T11:39:44;16.30;;;9.80;;
68938;SDS011;59064;45.294;11.816;2023-01-29T11:42:20;16.70;;;9.90;;
68938;SDS011;59064;45.294;11.816;2023-01-29T11:44:47;16.60;;;9.90;;
68938;SDS011;59064;45.294;11.816;2023-01-29T11:47:17;19.50;;;10.70;;
68938;SDS011;59064;45.294;11.816;2023-01-29T11:49:51;19.10;;;11.40;;
68938;SDS011;59064;45.294;11.816;2023-01-29T11:52:21;18.70;;;10.30;;
68938;SDS011;59064;45.294;11.816;2023-01-29T11:54:54;20.40;;;11.80;;
68938;SDS011;59064;45.294;11.816;2023-01-29T11:57:42;17.70;;;10.50;;
68938;SDS011;59064;45.294;11.816;2023-01-29T12:00:22;16.40;;;10.00;;
68938;SDS011;59064;45.294;11.816;2023-01-29T12:03:16;18.40;;;11.20;;
68938;SDS011;59064;45.294;11.816;2023-01-29T12:06:06;16.20;;;9.80;;
68938;SDS011;59064;45.294;11.816;2023-01-29T12:08:38;18.00;;;11.20;;
68938;SDS011;59064;45.294;11.816;2023-01-29T12:11:13;18.20;;;11.00;;
68938;SDS011;59064;45.294;11.816;2023-01-29T12:13:53;17.40;;;11.10;;
68938;SDS011;59064;45.294;11.816;2023-01-29T12:16:30;18.00;;;11.40;;
68938;SDS011;59064;45.294;11.816;2023-01-29T12:19:05;15.60;;;10.20;;
68938;SDS011;59064;45.294;11.816;2023-01-29T12:22:04;16.70;;;10.80;;
68938;SDS011;59064;45.294;11.816;2023-01-29T12:25:17;18.90;;;10.70;;
68938;SDS011;59064;45.294;11.816;2023-01-29T12:27:47;16.70;;;10.30;;
68938;SDS011;59064;45.294;11.816;2023-01-29T12:30:32;17.90;;;11.10;;
68938;SDS011;59064;45.294;11.816;2023-01-29T12:38:43;15.30;;;8.70;;
68938;SDS011;59064;45.294;11.816;2023-01-29T12:41:30;18.00;;;10.70;;
68938;SDS011;59064;45.294;11.816;2023-01-29T12:44:03;17.50;;;11.10;;
68938;SDS011;59064;45.294;11.816;2023-01-29T12:46:42;16.10;;;9.90;;
68938;SDS011;59064;45.294;11.816;2023-01-29T12:49:17;17.80;;;11.10;;
68938;SDS011;59064;45.294;11.816;2023-01-29T12:51:56;17.40;;;10.40;;
68938;SDS011;59064;45.294;11.816;2023-01-29T12:54:37;16.70;;;10.40;;
68938;SDS011;59064;45.294;11.816;2023-01-29T12:57:17;16.70;;;10.70;;
68938;SDS011;59064;45.294;11.816;2023-01-29T12:59:58;18.50;;;11.00;;
68938;SDS011;59064;45.294;11.816;2023-01-29T13:02:37;16.20;;;10.50;;
68938;SDS011;59064;45.294;11.816;2023-01-29T13:05:32;14.40;;;9.80;;
68938;SDS011;59064;45.294;11.816;2023-01-29T13:08:13;15.80;;;10.50;;
68938;SDS011;59064;45.294;11.816;2023-01-29T13:10:46;16.00;;;10.00;;
68938;SDS011;59064;45.294;11.816;2023-01-29T13:15:53;17.50;;;11.10;;
68938;SDS011;59064;45.294;11.816;2023-01-29T13:18:40;17.10;;;10.80;;
68938;SDS011;59064;45.294;11.816;2023-01-29T13:21:17;16.80;;;9.50;;
68938;SDS011;59064;45.294;11.816;2023-01-29T13:23:49;15.10;;;9.20;;
68938;SDS011;59064;45.294;11.816;2023-01-29T13:26:21;13.90;;;9.10;;
68938;SDS011;59064;45.294;11.816;2023-01-29T13:28:48;15.40;;;9.90;;
68938;SDS011;59064;45.294;11.816;2023-01-29T13:31:35;16.00;;;9.50;;
68938;SDS011;59064;45.294;11.816;2023-01-29T13:34:14;17.80;;;9.20;;
68938;SDS011;59064;45.294;11.816;2023-01-29T13:36:49;14.60;;;9.30;;
68938;SDS011;59064;45.294;11.816;2023-01-29T13:39:27;15.10;;;8.70;;
68938;SDS011;59064;45.294;11.816;2023-01-29T13:41:55;15.10;;;9.20;;
68938;SDS011;59064;45.294;11.816;2023-01-29T13:46:57;15.30;;;9.30;;
68938;SDS011;59064;45.294;11.816;2023-01-29T13:51:58;15.90;;;9.80;;
68938;SDS011;59064;45.294;11.816;2023-01-29T13:54:40;16.40;;;10.10;;
68938;SDS011;59064;45.294;11.816;2023-01-29T14:02:45;17.30;;;11.20;;
68938;SDS011;59064;45.294;11.816;2023-01-29T14:05:58;18.30;;;9.40;;
68938;SDS011;59064;45.294;11.816;2023-01-29T14:13:45;16.40;;;9.80;;
68938;SDS011;59064;45.294;11.816;2023-01-29T14:18:52;18.70;;;11.70;;
68938;SDS011;59064;45.294;11.816;2023-01-29T14:21:25;14.50;;;7.90;;
68938;SDS011;59064;45.294;11.816;2023-01-29T14:24:07;17.70;;;10.30;;
68938;SDS011;59064;45.294;11.816;2023-01-29T14:26:44;21.80;;;11.50;;
68938;SDS011;59064;45.294;11.816;2023-01-29T14:36:42;29.20;;;12.90;;
68938;SDS011;59064;45.294;11.816;2023-01-29T14:41:47;29.40;;;17.80;;
68938;SDS011;59064;45.294;11.816;2023-01-29T14:49:53;45.40;;;22.50;;
68938;SDS011;59064;45.294;11.816;2023-01-29T14:52:52;93.40;;;32.00;;
68938;SDS011;59064;45.294;11.816;2023-01-29T14:55:26;26.90;;;10.70;;
68938;SDS011;59064;45.294;11.816;2023-01-29T14:57:56;18.30;;;9.90;;
68938;SDS011;59064;45.294;11.816;2023-01-29T15:00:27;14.70;;;9.00;;
68938;SDS011;59064;45.294;11.816;2023-01-29T15:02:55;17.40;;;10.50;;
68938;SDS011;59064;45.294;11.816;2023-01-29T15:05:26;16.90;;;10.40;;
68938;SDS011;59064;45.294;11.816;2023-01-29T15:10:56;16.10;;;9.40;;
68938;SDS011;59064;45.294;11.816;2023-01-29T15:13:46;15.60;;;9.40;;
68938;SDS011;59064;45.294;11.816;2023-01-29T15:16:33;16.90;;;11.20;;
68938;SDS011;59064;45.294;11.816;2023-01-29T15:19:27;15.20;;;10.30;;
68938;SDS011;59064;45.294;11.816;2023-01-29T15:22:23;18.80;;;11.60;;
68938;SDS011;59064;45.294;11.816;2023-01-29T15:25:19;15.50;;;9.40;;
68938;SDS011;59064;45.294;11.816;2023-01-29T15:27:46;14.80;;;9.10;;
68938;SDS011;59064;45.294;11.816;2023-01-29T15:30:18;14.20;;;8.90;;
68938;SDS011;59064;45.294;11.816;2023-01-29T15:32:47;15.80;;;10.00;;
68938;SDS011;59064;45.294;11.816;2023-01-29T15:35:33;19.30;;;12.90;;
68938;SDS011;59064;45.294;11.816;2023-01-29T15:40:32;18.40;;;10.60;;
68938;SDS011;59064;45.294;11.816;2023-01-29T15:42:59;14.60;;;9.50;;
68938;SDS011;59064;45.294;11.816;2023-01-29T15:45:32;13.50;;;8.20;;
68938;SDS011;59064;45.294;11.816;2023-01-29T15:48:03;17.20;;;9.50;;
68938;SDS011;59064;45.294;11.816;2023-01-29T15:50:35;16.00;;;9.60;;
68938;SDS011;59064;45.294;11.816;2023-01-29T15:53:06;17.50;;;11.80;;
68938;SDS011;59064;45.294;11.816;2023-01-29T15:55:40;18.40;;;11.20;;
68938;SDS011;59064;45.294;11.816;2023-01-29T15:58:06;17.20;;;9.90;;
68938;SDS011;59064;45.294;11.816;2023-01-29T16:00:48;19.30;;;11.70;;
68938;SDS011;59064;45.294;11.816;2023-01-29T16:03:19;18.50;;;11.50;;
68938;SDS011;59064;45.294;11.816;2023-01-29T16:05:47;19.20;;;11.40;;
68938;SDS011;59064;45.294;11.816;2023-01-29T16:08:14;20.40;;;11.20;;
68938;SDS011;59064;45.294;11.816;2023-01-29T16:10:40;16.20;;;10.50;;
68938;SDS011;59064;45.294;11.816;2023-01-29T16:13:27;16.80;;;9.60;;
68938;SDS011;59064;45.294;11.816;2023-01-29T16:16:03;16.80;;;9.80;;
68938;SDS011;59064;45.294;11.816;2023-01-29T16:18:44;15.50;;;9.20;;
68938;SDS011;59064;45.294;11.816;2023-01-29T16:21:15;17.60;;;10.40;;
68938;SDS011;59064;45.294;11.816;2023-01-29T16:26:46;22.10;;;11.80;;
68938;SDS011;59064;45.294;11.816;2023-01-29T16:29:15;20.80;;;11.00;;
68938;SDS011;59064;45.294;11.816;2023-01-29T16:31:44;20.60;;;11.20;;
68938;SDS011;59064;45.294;11.816;2023-01-29T16:34:23;28.80;;;16.50;;
68938;SDS011;59064;45.294;11.816;2023-01-29T16:36:54;29.70;;;15.90;;
68938;SDS011;59064;45.294;11.816;2023-01-29T16:39:26;32.30;;;18.40;;
68938;SDS011;59064;45.294;11.816;2023-01-29T16:47:44;44.30;;;20.90;;
68938;SDS011;59064;45.294;11.816;2023-01-29T16:50:32;52.60;;;22.60;;
68938;SDS011;59064;45.294;11.816;2023-01-29T16:53:11;60.10;;;25.40;;
68938;SDS011;59064;45.294;11.816;2023-01-29T16:55:43;36.80;;;16.90;;
68938;SDS011;59064;45.294;11.816;2023-01-29T16:58:21;40.10;;;17.10;;
68938;SDS011;59064;45.294;11.816;2023-01-29T17:01:04;30.70;;;16.00;;
68938;SDS011;59064;45.294;11.816;2023-01-29T17:03:33;27.10;;;14.20;;
68938;SDS011;59064;45.294;11.816;2023-01-29T17:06:11;27.90;;;16.60;;
68938;SDS011;59064;45.294;11.816;2023-01-29T17:08:43;30.00;;;19.40;;
68938;SDS011;59064;45.294;11.816;2023-01-29T17:11:10;30.20;;;17.30;;
68938;SDS011;59064;45.294;11.816;2023-01-29T17:13:45;28.40;;;15.60;;
68938;SDS011;59064;45.294;11.816;2023-01-29T17:18:48;26.90;;;14.90;;
68938;SDS011;59064;45.294;11.816;2023-01-29T17:21:14;33.00;;;17.50;;
68938;SDS011;59064;45.294;11.816;2023-01-29T17:23:40;27.80;;;16.30;;
68938;SDS011;59064;45.294;11.816;2023-01-29T17:26:06;26.60;;;14.70;;
68938;SDS011;59064;45.294;11.816;2023-01-29T17:28:36;27.60;;;14.80;;
68938;SDS011;59064;45.294;11.816;2023-01-29T17:31:03;25.40;;;15.80;;
68938;SDS011;59064;45.294;11.816;2023-01-29T17:33:29;26.30;;;13.30;;
68938;SDS011;59064;45.294;11.816;2023-01-29T17:35:55;26.50;;;14.10;;